sensor_id;sensor_type;location;lat;lon;timestamp;temperature;humidity
79356;SHT31;68825;51.978;5.654;2024-02-21T00:01:02;12.2;70.6
79356;SHT31;68825;51.978;5.654;2024-02-21T00:03:31;12.2;70.6
79356;SHT31;68825;51.978;5.654;2024-02-21T00:06:00;12.2;70.6
79356;SHT31;68825;51.978;5.654;2024-02-21T00:08:29;12.2;70.5
79356;SHT31;68825;51.978;5.654;2024-02-21T00:10:57;12.2;70.6
79356;SHT31;68825;51.978;5.654;2024-02-21T00:13:26;12.2;70.2
79356;SHT31;68825;51.978;5.654;2024-02-21T00:15:54;12.2;70.1
79356;SHT31;68825;51.978;5.654;2024-02-21T00:18:23;12.2;70.1
79356;SHT31;68825;51.978;5.654;2024-02-21T00:20:53;12.2;70.4
79356;SHT31;68825;51.978;5.654;2024-02-21T00:23:21;12.2;70.5
79356;SHT31;68825;51.978;5.654;2024-02-21T00:25:50;12.2;70.4
79356;SHT31;68825;51.978;5.654;2024-02-21T00:28:18;12.2;70.2
79356;SHT31;68825;51.978;5.654;2024-02-21T00:30:47;12.2;70.1
79356;SHT31;68825;51.978;5.654;2024-02-21T00:33:18;12.2;70.4
79356;SHT31;68825;51.978;5.654;2024-02-21T00:35:47;12.2;70.4
79356;SHT31;68825;51.978;5.654;2024-02-21T00:38:15;12.2;70.4
79356;SHT31;68825;51.978;5.654;2024-02-21T00:40:44;12.2;70.4
79356;SHT31;68825;51.978;5.654;2024-02-21T00:43:13;12.2;70.3
79356;SHT31;68825;51.978;5.654;2024-02-21T00:45:41;12.2;70.4
79356;SHT31;68825;51.978;5.654;2024-02-21T00:48:10;12.2;70.3
79356;SHT31;68825;51.978;5.654;2024-02-21T00:50:38;12.2;70.6
79356;SHT31;68825;51.978;5.654;2024-02-21T00:53:07;12.2;70.8
79356;SHT31;68825;51.978;5.654;2024-02-21T00:55:36;12.2;70.6
79356;SHT31;68825;51.978;5.654;2024-02-21T00:58:05;12.2;70.2
79356;SHT31;68825;51.978;5.654;2024-02-21T01:00:33;12.2;70.3
79356;SHT31;68825;51.978;5.654;2024-02-21T01:03:02;12.2;70.3
79356;SHT31;68825;51.978;5.654;2024-02-21T01:05:31;12.2;70.2
79356;SHT31;68825;51.978;5.654;2024-02-21T01:07:59;12.2;70.1
79356;SHT31;68825;51.978;5.654;2024-02-21T01:10:28;12.2;69.8
79356;SHT31;68825;51.978;5.654;2024-02-21T01:12:56;12.2;69.8
79356;SHT31;68825;51.978;5.654;2024-02-21T01:15:25;12.2;70.1
79356;SHT31;68825;51.978;5.654;2024-02-21T01:17:53;12.2;70.1
79356;SHT31;68825;51.978;5.654;2024-02-21T01:20:22;12.2;70.2
79356;SHT31;68825;51.978;5.654;2024-02-21T01:22:51;12.2;69.8
79356;SHT31;68825;51.978;5.654;2024-02-21T01:25:19;12.2;70.2
79356;SHT31;68825;51.978;5.654;2024-02-21T01:27:48;12.2;70.0
79356;SHT31;68825;51.978;5.654;2024-02-21T01:30:17;12.2;70.1
79356;SHT31;68825;51.978;5.654;2024-02-21T01:32:46;12.2;70.1
79356;SHT31;68825;51.978;5.654;2024-02-21T01:35:15;12.2;70.1
79356;SHT31;68825;51.978;5.654;2024-02-21T01:37:44;12.2;69.9
79356;SHT31;68825;51.978;5.654;2024-02-21T01:40:14;12.2;70.1
79356;SHT31;68825;51.978;5.654;2024-02-21T01:42:43;12.2;70.3
79356;SHT31;68825;51.978;5.654;2024-02-21T01:45:12;12.2;70.0
79356;SHT31;68825;51.978;5.654;2024-02-21T01:47:41;12.2;70.1
79356;SHT31;68825;51.978;5.654;2024-02-21T01:50:12;12.2;70.1
79356;SHT31;68825;51.978;5.654;2024-02-21T01:52:43;12.2;69.9
79356;SHT31;68825;51.978;5.654;2024-02-21T01:55:14;12.2;69.6
79356;SHT31;68825;51.978;5.654;2024-02-21T01:57:44;12.2;69.7
79356;SHT31;68825;51.978;5.654;2024-02-21T02:00:17;12.2;70.0
79356;SHT31;68825;51.978;5.654;2024-02-21T02:02:46;12.2;70.0
79356;SHT31;68825;51.978;5.654;2024-02-21T02:05:15;12.2;69.9
79356;SHT31;68825;51.978;5.654;2024-02-21T02:07:47;12.2;69.9
79356;SHT31;68825;51.978;5.654;2024-02-21T02:10:16;12.2;69.8
79356;SHT31;68825;51.978;5.654;2024-02-21T02:12:45;12.2;69.7
79356;SHT31;68825;51.978;5.654;2024-02-21T02:15:13;12.2;69.9
79356;SHT31;68825;51.978;5.654;2024-02-21T02:17:42;12.2;70.2
79356;SHT31;68825;51.978;5.654;2024-02-21T02:20:11;12.2;69.9
79356;SHT31;68825;51.978;5.654;2024-02-21T02:22:42;12.2;69.7
79356;SHT31;68825;51.978;5.654;2024-02-21T02:25:13;12.2;70.0
79356;SHT31;68825;51.978;5.654;2024-02-21T02:27:45;12.2;69.6
79356;SHT31;68825;51.978;5.654;2024-02-21T02:30:16;12.2;69.7
79356;SHT31;68825;51.978;5.654;2024-02-21T02:32:46;12.2;69.8
79356;SHT31;68825;51.978;5.654;2024-02-21T02:35:15;12.2;69.7
79356;SHT31;68825;51.978;5.654;2024-02-21T02:37:49;12.2;69.9
79356;SHT31;68825;51.978;5.654;2024-02-21T02:40:18;12.2;70.2
79356;SHT31;68825;51.978;5.654;2024-02-21T02:42:47;12.1;69.6
79356;SHT31;68825;51.978;5.654;2024-02-21T02:45:17;12.1;69.8
79356;SHT31;68825;51.978;5.654;2024-02-21T02:47:46;12.1;69.9
79356;SHT31;68825;51.978;5.654;2024-02-21T02:50:15;12.1;69.8
79356;SHT31;68825;51.978;5.654;2024-02-21T02:52:44;12.1;69.7
79356;SHT31;68825;51.978;5.654;2024-02-21T02:55:12;12.1;69.7
79356;SHT31;68825;51.978;5.654;2024-02-21T02:57:41;12.1;69.9
79356;SHT31;68825;51.978;5.654;2024-02-21T03:00:11;12.1;69.5
79356;SHT31;68825;51.978;5.654;2024-02-21T03:02:44;12.1;69.9
79356;SHT31;68825;51.978;5.654;2024-02-21T03:05:15;12.1;69.7
79356;SHT31;68825;51.978;5.654;2024-02-21T03:07:45;12.1;69.9
79356;SHT31;68825;51.978;5.654;2024-02-21T03:10:14;12.1;69.7
79356;SHT31;68825;51.978;5.654;2024-02-21T03:12:43;12.1;69.8
79356;SHT31;68825;51.978;5.654;2024-02-21T03:15:13;12.1;70.2
79356;SHT31;68825;51.978;5.654;2024-02-21T03:17:42;12.1;70.2
79356;SHT31;68825;51.978;5.654;2024-02-21T03:20:11;12.1;69.7
79356;SHT31;68825;51.978;5.654;2024-02-21T03:22:40;12.1;70.0
79356;SHT31;68825;51.978;5.654;2024-02-21T03:25:09;12.1;69.8
79356;SHT31;68825;51.978;5.654;2024-02-21T03:27:39;12.2;70.0
79356;SHT31;68825;51.978;5.654;2024-02-21T03:30:11;12.2;70.1
79356;SHT31;68825;51.978;5.654;2024-02-21T03:32:40;12.2;70.4
79356;SHT31;68825;51.978;5.654;2024-02-21T03:35:09;12.2;70.5
79356;SHT31;68825;51.978;5.654;2024-02-21T03:37:37;12.2;70.1
79356;SHT31;68825;51.978;5.654;2024-02-21T03:40:09;12.2;70.2
79356;SHT31;68825;51.978;5.654;2024-02-21T03:42:38;12.2;70.4
79356;SHT31;68825;51.978;5.654;2024-02-21T03:45:10;12.2;70.2
79356;SHT31;68825;51.978;5.654;2024-02-21T03:47:38;12.2;70.2
79356;SHT31;68825;51.978;5.654;2024-02-21T03:50:07;12.3;70.1
79356;SHT31;68825;51.978;5.654;2024-02-21T03:52:36;12.3;70.1
79356;SHT31;68825;51.978;5.654;2024-02-21T03:55:05;12.3;70.0
79356;SHT31;68825;51.978;5.654;2024-02-21T03:57:34;12.3;70.1
79356;SHT31;68825;51.978;5.654;2024-02-21T04:00:02;12.3;70.1
79356;SHT31;68825;51.978;5.654;2024-02-21T04:02:35;12.3;69.9
79356;SHT31;68825;51.978;5.654;2024-02-21T04:05:03;12.3;69.8
79356;SHT31;68825;51.978;5.654;2024-02-21T04:07:32;12.3;69.9
79356;SHT31;68825;51.978;5.654;2024-02-21T04:10:01;12.3;69.8
79356;SHT31;68825;51.978;5.654;2024-02-21T04:12:29;12.3;70.0
79356;SHT31;68825;51.978;5.654;2024-02-21T04:14:58;12.3;70.0
79356;SHT31;68825;51.978;5.654;2024-02-21T04:17:26;12.3;69.3
79356;SHT31;68825;51.978;5.654;2024-02-21T04:20:03;12.3;69.7
79356;SHT31;68825;51.978;5.654;2024-02-21T04:22:34;12.3;69.7
79356;SHT31;68825;51.978;5.654;2024-02-21T04:25:03;12.3;69.8
79356;SHT31;68825;51.978;5.654;2024-02-21T04:27:32;12.3;69.6
79356;SHT31;68825;51.978;5.654;2024-02-21T04:30:00;12.3;70.1
79356;SHT31;68825;51.978;5.654;2024-02-21T04:32:29;12.3;69.9
79356;SHT31;68825;51.978;5.654;2024-02-21T04:34:58;12.3;69.8
79356;SHT31;68825;51.978;5.654;2024-02-21T04:37:27;12.3;69.9
79356;SHT31;68825;51.978;5.654;2024-02-21T04:39:55;12.3;69.9
79356;SHT31;68825;51.978;5.654;2024-02-21T04:42:24;12.3;70.1
79356;SHT31;68825;51.978;5.654;2024-02-21T04:44:53;12.3;70.1
79356;SHT31;68825;51.978;5.654;2024-02-21T04:47:23;12.2;69.9
79356;SHT31;68825;51.978;5.654;2024-02-21T04:49:54;12.2;69.7
79356;SHT31;68825;51.978;5.654;2024-02-21T04:52:23;12.2;69.6
79356;SHT31;68825;51.978;5.654;2024-02-21T04:54:52;12.2;69.7
79356;SHT31;68825;51.978;5.654;2024-02-21T04:57:20;12.2;69.9
79356;SHT31;68825;51.978;5.654;2024-02-21T04:59:49;12.2;69.9
79356;SHT31;68825;51.978;5.654;2024-02-21T05:02:17;12.2;69.9
79356;SHT31;68825;51.978;5.654;2024-02-21T05:04:50;12.1;70.0
79356;SHT31;68825;51.978;5.654;2024-02-21T05:07:19;12.1;69.9
79356;SHT31;68825;51.978;5.654;2024-02-21T05:09:48;12.1;70.0
79356;SHT31;68825;51.978;5.654;2024-02-21T05:12:16;12.1;70.0
79356;SHT31;68825;51.978;5.654;2024-02-21T05:14:45;12.1;69.8
79356;SHT31;68825;51.978;5.654;2024-02-21T05:17:14;12.0;70.1
79356;SHT31;68825;51.978;5.654;2024-02-21T05:19:43;12.0;70.1
79356;SHT31;68825;51.978;5.654;2024-02-21T05:22:12;12.0;70.4
79356;SHT31;68825;51.978;5.654;2024-02-21T05:24:40;12.0;70.5
79356;SHT31;68825;51.978;5.654;2024-02-21T05:27:09;11.9;70.6
79356;SHT31;68825;51.978;5.654;2024-02-21T05:29:37;11.9;70.8
79356;SHT31;68825;51.978;5.654;2024-02-21T05:32:06;11.9;70.7
79356;SHT31;68825;51.978;5.654;2024-02-21T05:34:35;11.9;70.9
79356;SHT31;68825;51.978;5.654;2024-02-21T05:37:05;11.9;71.0
79356;SHT31;68825;51.978;5.654;2024-02-21T05:39:34;11.9;70.6
79356;SHT31;68825;51.978;5.654;2024-02-21T05:42:02;11.9;70.8
79356;SHT31;68825;51.978;5.654;2024-02-21T05:44:31;11.9;70.9
79356;SHT31;68825;51.978;5.654;2024-02-21T05:46:59;11.9;71.1
79356;SHT31;68825;51.978;5.654;2024-02-21T05:49:28;11.9;71.3
79356;SHT31;68825;51.978;5.654;2024-02-21T05:51:57;11.9;71.2
79356;SHT31;68825;51.978;5.654;2024-02-21T05:54:25;11.9;71.0
79356;SHT31;68825;51.978;5.654;2024-02-21T05:56:56;11.8;70.9
79356;SHT31;68825;51.978;5.654;2024-02-21T05:59:24;11.8;71.1
79356;SHT31;68825;51.978;5.654;2024-02-21T06:01:57;11.8;71.2
79356;SHT31;68825;51.978;5.654;2024-02-21T06:04:26;11.8;71.2
79356;SHT31;68825;51.978;5.654;2024-02-21T06:06:54;11.8;71.1
79356;SHT31;68825;51.978;5.654;2024-02-21T06:09:23;11.8;71.1
79356;SHT31;68825;51.978;5.654;2024-02-21T06:11:51;11.8;70.9
79356;SHT31;68825;51.978;5.654;2024-02-21T06:14:20;11.8;71.2
79356;SHT31;68825;51.978;5.654;2024-02-21T06:16:51;11.8;71.4
79356;SHT31;68825;51.978;5.654;2024-02-21T06:19:21;11.8;71.1
79356;SHT31;68825;51.978;5.654;2024-02-21T06:21:51;11.8;71.1
79356;SHT31;68825;51.978;5.654;2024-02-21T06:24:20;11.8;71.1
79356;SHT31;68825;51.978;5.654;2024-02-21T06:26:49;11.8;71.0
79356;SHT31;68825;51.978;5.654;2024-02-21T06:29:18;11.8;71.0
79356;SHT31;68825;51.978;5.654;2024-02-21T06:31:47;11.8;70.8
79356;SHT31;68825;51.978;5.654;2024-02-21T06:34:16;11.8;70.9
79356;SHT31;68825;51.978;5.654;2024-02-21T06:36:46;11.8;70.9
79356;SHT31;68825;51.978;5.654;2024-02-21T06:39:15;11.8;71.0
79356;SHT31;68825;51.978;5.654;2024-02-21T06:41:44;11.8;70.6
79356;SHT31;68825;51.978;5.654;2024-02-21T06:44:14;11.8;70.7
79356;SHT31;68825;51.978;5.654;2024-02-21T06:46:43;11.8;70.8
79356;SHT31;68825;51.978;5.654;2024-02-21T06:49:11;11.8;70.5
79356;SHT31;68825;51.978;5.654;2024-02-21T06:51:42;11.8;70.4
79356;SHT31;68825;51.978;5.654;2024-02-21T06:54:11;11.8;70.8
79356;SHT31;68825;51.978;5.654;2024-02-21T06:56:40;11.8;70.9
79356;SHT31;68825;51.978;5.654;2024-02-21T06:59:09;11.8;70.4
79356;SHT31;68825;51.978;5.654;2024-02-21T07:01:44;11.8;70.4
79356;SHT31;68825;51.978;5.654;2024-02-21T07:04:12;11.8;70.7
79356;SHT31;68825;51.978;5.654;2024-02-21T07:06:41;11.8;70.6
79356;SHT31;68825;51.978;5.654;2024-02-21T07:09:09;11.8;70.5
79356;SHT31;68825;51.978;5.654;2024-02-21T07:11:38;11.8;70.5
79356;SHT31;68825;51.978;5.654;2024-02-21T07:14:06;11.8;70.4
79356;SHT31;68825;51.978;5.654;2024-02-21T07:16:35;11.8;70.5
79356;SHT31;68825;51.978;5.654;2024-02-21T07:19:04;11.8;70.6
79356;SHT31;68825;51.978;5.654;2024-02-21T07:21:32;11.8;70.6
79356;SHT31;68825;51.978;5.654;2024-02-21T07:24:04;11.8;70.8
79356;SHT31;68825;51.978;5.654;2024-02-21T07:26:34;11.8;70.4
79356;SHT31;68825;51.978;5.654;2024-02-21T07:29:04;11.8;69.9
79356;SHT31;68825;51.978;5.654;2024-02-21T07:31:40;11.8;70.3
79356;SHT31;68825;51.978;5.654;2024-02-21T07:34:09;11.8;70.4
79356;SHT31;68825;51.978;5.654;2024-02-21T07:36:38;11.8;70.1
79356;SHT31;68825;51.978;5.654;2024-02-21T07:39:07;11.8;70.1
79356;SHT31;68825;51.978;5.654;2024-02-21T07:41:35;11.8;70.1
79356;SHT31;68825;51.978;5.654;2024-02-21T07:44:05;11.8;70.3
79356;SHT31;68825;51.978;5.654;2024-02-21T07:46:36;11.8;70.1
79356;SHT31;68825;51.978;5.654;2024-02-21T07:49:04;11.8;70.2
79356;SHT31;68825;51.978;5.654;2024-02-21T07:51:35;11.8;70.5
79356;SHT31;68825;51.978;5.654;2024-02-21T07:54:03;11.8;70.1
79356;SHT31;68825;51.978;5.654;2024-02-21T07:56:32;11.8;70.1
79356;SHT31;68825;51.978;5.654;2024-02-21T07:59:01;11.8;70.3
79356;SHT31;68825;51.978;5.654;2024-02-21T08:01:31;11.8;70.1
79356;SHT31;68825;51.978;5.654;2024-02-21T08:04:00;11.8;70.1
79356;SHT31;68825;51.978;5.654;2024-02-21T08:06:30;11.8;69.7
79356;SHT31;68825;51.978;5.654;2024-02-21T08:08:59;11.8;70.2
79356;SHT31;68825;51.978;5.654;2024-02-21T08:11:27;11.8;70.3
79356;SHT31;68825;51.978;5.654;2024-02-21T08:13:56;11.8;69.9
79356;SHT31;68825;51.978;5.654;2024-02-21T08:16:24;11.8;69.7
79356;SHT31;68825;51.978;5.654;2024-02-21T08:18:54;11.8;69.8
79356;SHT31;68825;51.978;5.654;2024-02-21T08:21:22;11.8;69.9
79356;SHT31;68825;51.978;5.654;2024-02-21T08:23:51;11.8;69.9
79356;SHT31;68825;51.978;5.654;2024-02-21T08:26:20;11.8;69.7
79356;SHT31;68825;51.978;5.654;2024-02-21T08:28:49;11.8;69.6
79356;SHT31;68825;51.978;5.654;2024-02-21T08:31:20;11.9;69.5
79356;SHT31;68825;51.978;5.654;2024-02-21T08:33:51;11.9;69.5
79356;SHT31;68825;51.978;5.654;2024-02-21T08:36:19;11.9;69.2
79356;SHT31;68825;51.978;5.654;2024-02-21T08:38:48;11.9;69.6
79356;SHT31;68825;51.978;5.654;2024-02-21T08:41:17;11.9;69.6
79356;SHT31;68825;51.978;5.654;2024-02-21T08:43:46;11.9;69.5
79356;SHT31;68825;51.978;5.654;2024-02-21T08:46:14;11.9;69.6
79356;SHT31;68825;51.978;5.654;2024-02-21T08:48:44;11.9;68.9
79356;SHT31;68825;51.978;5.654;2024-02-21T08:51:13;12.0;68.8
79356;SHT31;68825;51.978;5.654;2024-02-21T08:53:43;12.0;69.2
79356;SHT31;68825;51.978;5.654;2024-02-21T08:56:12;12.0;68.9
79356;SHT31;68825;51.978;5.654;2024-02-21T08:58:43;12.0;69.0
79356;SHT31;68825;51.978;5.654;2024-02-21T09:01:13;12.0;68.9
79356;SHT31;68825;51.978;5.654;2024-02-21T09:03:43;12.0;68.8
79356;SHT31;68825;51.978;5.654;2024-02-21T09:06:12;12.1;68.5
79356;SHT31;68825;51.978;5.654;2024-02-21T09:08:41;12.1;68.5
79356;SHT31;68825;51.978;5.654;2024-02-21T09:11:11;12.1;68.2
79356;SHT31;68825;51.978;5.654;2024-02-21T09:13:41;12.1;68.6
79356;SHT31;68825;51.978;5.654;2024-02-21T09:16:09;12.1;69.0
79356;SHT31;68825;51.978;5.654;2024-02-21T09:18:38;12.1;68.0
79356;SHT31;68825;51.978;5.654;2024-02-21T09:21:07;12.1;68.5
79356;SHT31;68825;51.978;5.654;2024-02-21T09:23:35;12.1;68.4
79356;SHT31;68825;51.978;5.654;2024-02-21T09:26:04;12.2;67.9
79356;SHT31;68825;51.978;5.654;2024-02-21T09:28:32;12.2;68.4
79356;SHT31;68825;51.978;5.654;2024-02-21T09:31:01;12.2;68.4
79356;SHT31;68825;51.978;5.654;2024-02-21T09:33:29;12.2;68.4
79356;SHT31;68825;51.978;5.654;2024-02-21T09:35:58;12.2;68.2
79356;SHT31;68825;51.978;5.654;2024-02-21T09:38:27;12.3;68.2
79356;SHT31;68825;51.978;5.654;2024-02-21T09:41:08;12.3;68.3
79356;SHT31;68825;51.978;5.654;2024-02-21T09:43:40;12.3;68.2
79356;SHT31;68825;51.978;5.654;2024-02-21T09:46:13;12.4;67.5
79356;SHT31;68825;51.978;5.654;2024-02-21T09:48:56;12.4;67.9
79356;SHT31;68825;51.978;5.654;2024-02-21T09:51:34;12.4;67.6
79356;SHT31;68825;51.978;5.654;2024-02-21T09:54:06;12.4;67.6
79356;SHT31;68825;51.978;5.654;2024-02-21T09:56:35;12.5;67.3
79356;SHT31;68825;51.978;5.654;2024-02-21T09:59:05;12.5;66.7
79356;SHT31;68825;51.978;5.654;2024-02-21T10:01:34;12.5;67.2
79356;SHT31;68825;51.978;5.654;2024-02-21T10:04:03;12.5;67.1
79356;SHT31;68825;51.978;5.654;2024-02-21T10:06:32;12.5;67.0
79356;SHT31;68825;51.978;5.654;2024-02-21T10:09:03;12.5;66.9
79356;SHT31;68825;51.978;5.654;2024-02-21T10:11:35;12.6;67.4
79356;SHT31;68825;51.978;5.654;2024-02-21T10:14:07;12.6;67.0
79356;SHT31;68825;51.978;5.654;2024-02-21T10:16:36;12.6;66.8
79356;SHT31;68825;51.978;5.654;2024-02-21T10:19:04;12.6;67.0
79356;SHT31;68825;51.978;5.654;2024-02-21T10:21:33;12.6;66.7
79356;SHT31;68825;51.978;5.654;2024-02-21T10:24:03;12.7;66.9
79356;SHT31;68825;51.978;5.654;2024-02-21T10:26:32;12.7;67.1
79356;SHT31;68825;51.978;5.654;2024-02-21T10:29:01;12.7;67.0
79356;SHT31;68825;51.978;5.654;2024-02-21T10:31:30;12.7;67.2
79356;SHT31;68825;51.978;5.654;2024-02-21T10:34:00;12.7;67.5
79356;SHT31;68825;51.978;5.654;2024-02-21T10:36:31;12.7;67.6
79356;SHT31;68825;51.978;5.654;2024-02-21T10:39:00;12.7;67.5
79356;SHT31;68825;51.978;5.654;2024-02-21T10:41:31;12.7;67.9
79356;SHT31;68825;51.978;5.654;2024-02-21T10:44:05;12.7;67.9
79356;SHT31;68825;51.978;5.654;2024-02-21T10:46:35;12.6;68.3
79356;SHT31;68825;51.978;5.654;2024-02-21T10:49:10;12.6;68.3
79356;SHT31;68825;51.978;5.654;2024-02-21T10:51:43;12.6;68.9
79356;SHT31;68825;51.978;5.654;2024-02-21T10:54:29;12.6;68.9
79356;SHT31;68825;51.978;5.654;2024-02-21T10:57:02;12.6;69.0
79356;SHT31;68825;51.978;5.654;2024-02-21T10:59:32;12.6;69.3
79356;SHT31;68825;51.978;5.654;2024-02-21T11:02:02;12.6;69.0
79356;SHT31;68825;51.978;5.654;2024-02-21T11:04:32;12.6;69.2
79356;SHT31;68825;51.978;5.654;2024-02-21T11:07:03;12.6;69.1
79356;SHT31;68825;51.978;5.654;2024-02-21T11:09:32;12.6;69.4
79356;SHT31;68825;51.978;5.654;2024-02-21T11:12:03;12.7;69.1
79356;SHT31;68825;51.978;5.654;2024-02-21T11:14:33;12.7;69.0
79356;SHT31;68825;51.978;5.654;2024-02-21T11:17:16;12.7;68.4
79356;SHT31;68825;51.978;5.654;2024-02-21T11:19:45;12.8;68.1
79356;SHT31;68825;51.978;5.654;2024-02-21T11:22:18;12.8;68.6
79356;SHT31;68825;51.978;5.654;2024-02-21T11:24:51;12.8;67.9
79356;SHT31;68825;51.978;5.654;2024-02-21T11:27:22;12.8;67.9
79356;SHT31;68825;51.978;5.654;2024-02-21T11:29:55;12.8;67.3
79356;SHT31;68825;51.978;5.654;2024-02-21T11:32:25;12.8;67.1
79356;SHT31;68825;51.978;5.654;2024-02-21T11:34:58;12.8;66.7
79356;SHT31;68825;51.978;5.654;2024-02-21T11:37:29;12.8;67.1
79356;SHT31;68825;51.978;5.654;2024-02-21T11:40:00;12.8;67.1
79356;SHT31;68825;51.978;5.654;2024-02-21T11:42:30;12.8;66.9
79356;SHT31;68825;51.978;5.654;2024-02-21T11:44:59;12.8;66.6
79356;SHT31;68825;51.978;5.654;2024-02-21T11:47:30;12.8;66.3
79356;SHT31;68825;51.978;5.654;2024-02-21T11:49:58;12.8;66.6
79356;SHT31;68825;51.978;5.654;2024-02-21T11:52:27;12.8;66.5
79356;SHT31;68825;51.978;5.654;2024-02-21T11:54:55;12.8;66.4
79356;SHT31;68825;51.978;5.654;2024-02-21T11:57:29;12.8;66.3
79356;SHT31;68825;51.978;5.654;2024-02-21T11:59:58;12.7;66.6
79356;SHT31;68825;51.978;5.654;2024-02-21T12:02:27;12.7;66.6
79356;SHT31;68825;51.978;5.654;2024-02-21T12:04:56;12.7;66.6
79356;SHT31;68825;51.978;5.654;2024-02-21T12:07:25;12.8;67.0
79356;SHT31;68825;51.978;5.654;2024-02-21T12:09:58;12.8;66.6
79356;SHT31;68825;51.978;5.654;2024-02-21T12:12:27;12.8;66.3
79356;SHT31;68825;51.978;5.654;2024-02-21T12:14:56;12.8;66.3
79356;SHT31;68825;51.978;5.654;2024-02-21T12:17:27;12.9;66.1
79356;SHT31;68825;51.978;5.654;2024-02-21T12:19:58;12.9;66.0
79356;SHT31;68825;51.978;5.654;2024-02-21T12:22:27;13.0;66.4
79356;SHT31;68825;51.978;5.654;2024-02-21T12:24:58;13.0;65.9
79356;SHT31;68825;51.978;5.654;2024-02-21T12:27:28;13.1;65.8
79356;SHT31;68825;51.978;5.654;2024-02-21T12:29:59;13.1;65.2
79356;SHT31;68825;51.978;5.654;2024-02-21T12:32:31;13.1;65.3
79356;SHT31;68825;51.978;5.654;2024-02-21T12:35:01;13.2;64.8
79356;SHT31;68825;51.978;5.654;2024-02-21T12:37:30;13.2;64.8
79356;SHT31;68825;51.978;5.654;2024-02-21T12:39:59;13.3;65.2
79356;SHT31;68825;51.978;5.654;2024-02-21T12:42:33;13.3;64.7
79356;SHT31;68825;51.978;5.654;2024-02-21T12:45:02;13.3;64.3
79356;SHT31;68825;51.978;5.654;2024-02-21T12:47:33;13.3;64.3
79356;SHT31;68825;51.978;5.654;2024-02-21T12:50:02;13.3;64.1
79356;SHT31;68825;51.978;5.654;2024-02-21T12:52:33;13.3;64.5
79356;SHT31;68825;51.978;5.654;2024-02-21T12:55:01;13.4;64.5
79356;SHT31;68825;51.978;5.654;2024-02-21T12:57:32;13.4;64.0
79356;SHT31;68825;51.978;5.654;2024-02-21T13:00:01;13.4;64.1
79356;SHT31;68825;51.978;5.654;2024-02-21T13:02:30;13.4;63.7
79356;SHT31;68825;51.978;5.654;2024-02-21T13:04:58;13.4;63.7
79356;SHT31;68825;51.978;5.654;2024-02-21T13:07:29;13.4;63.7
79356;SHT31;68825;51.978;5.654;2024-02-21T13:09:58;13.4;63.8
79356;SHT31;68825;51.978;5.654;2024-02-21T13:12:27;13.4;63.4
79356;SHT31;68825;51.978;5.654;2024-02-21T13:14:56;13.4;63.5
79356;SHT31;68825;51.978;5.654;2024-02-21T13:17:25;13.4;63.6
79356;SHT31;68825;51.978;5.654;2024-02-21T13:19:56;13.4;63.7
79356;SHT31;68825;51.978;5.654;2024-02-21T13:22:25;13.4;63.5
79356;SHT31;68825;51.978;5.654;2024-02-21T13:24:53;13.5;63.5
79356;SHT31;68825;51.978;5.654;2024-02-21T13:27:22;13.5;63.1
79356;SHT31;68825;51.978;5.654;2024-02-21T13:29:50;13.5;63.8
79356;SHT31;68825;51.978;5.654;2024-02-21T13:32:19;13.5;63.5
79356;SHT31;68825;51.978;5.654;2024-02-21T13:34:48;13.5;63.9
79356;SHT31;68825;51.978;5.654;2024-02-21T13:37:18;13.5;63.8
79356;SHT31;68825;51.978;5.654;2024-02-21T13:39:48;13.5;63.5
79356;SHT31;68825;51.978;5.654;2024-02-21T13:42:16;13.5;63.2
79356;SHT31;68825;51.978;5.654;2024-02-21T13:44:45;13.5;63.2
79356;SHT31;68825;51.978;5.654;2024-02-21T13:47:15;13.5;62.9
79356;SHT31;68825;51.978;5.654;2024-02-21T13:49:43;13.5;63.6
79356;SHT31;68825;51.978;5.654;2024-02-21T13:52:12;13.4;63.5
79356;SHT31;68825;51.978;5.654;2024-02-21T13:54:41;13.4;63.2
79356;SHT31;68825;51.978;5.654;2024-02-21T13:57:10;13.4;63.9
79356;SHT31;68825;51.978;5.654;2024-02-21T13:59:38;13.5;63.5
79356;SHT31;68825;51.978;5.654;2024-02-21T14:02:09;13.5;63.4
79356;SHT31;68825;51.978;5.654;2024-02-21T14:04:38;13.5;63.6
79356;SHT31;68825;51.978;5.654;2024-02-21T14:07:07;13.5;63.5
79356;SHT31;68825;51.978;5.654;2024-02-21T14:09:35;13.5;63.5
79356;SHT31;68825;51.978;5.654;2024-02-21T14:12:04;13.5;63.6
79356;SHT31;68825;51.978;5.654;2024-02-21T14:14:34;13.5;63.5
79356;SHT31;68825;51.978;5.654;2024-02-21T14:17:03;13.5;63.6
79356;SHT31;68825;51.978;5.654;2024-02-21T14:19:34;13.5;62.8
79356;SHT31;68825;51.978;5.654;2024-02-21T14:22:02;13.5;63.2
79356;SHT31;68825;51.978;5.654;2024-02-21T14:24:32;13.5;62.9
79356;SHT31;68825;51.978;5.654;2024-02-21T14:27:00;13.5;62.9
79356;SHT31;68825;51.978;5.654;2024-02-21T14:29:30;13.5;62.3
79356;SHT31;68825;51.978;5.654;2024-02-21T14:31:58;13.5;62.6
79356;SHT31;68825;51.978;5.654;2024-02-21T14:34:27;13.5;62.4
79356;SHT31;68825;51.978;5.654;2024-02-21T14:36:57;13.5;62.0
79356;SHT31;68825;51.978;5.654;2024-02-21T14:39:26;13.5;62.1
79356;SHT31;68825;51.978;5.654;2024-02-21T14:41:55;13.5;61.7
79356;SHT31;68825;51.978;5.654;2024-02-21T14:44:24;13.5;61.6
79356;SHT31;68825;51.978;5.654;2024-02-21T14:46:55;13.5;61.3
79356;SHT31;68825;51.978;5.654;2024-02-21T14:49:24;13.5;61.9
79356;SHT31;68825;51.978;5.654;2024-02-21T14:51:55;13.5;62.0
79356;SHT31;68825;51.978;5.654;2024-02-21T14:54:25;13.5;62.0
79356;SHT31;68825;51.978;5.654;2024-02-21T14:56:56;13.4;62.9
79356;SHT31;68825;51.978;5.654;2024-02-21T14:59:24;13.4;63.0
79356;SHT31;68825;51.978;5.654;2024-02-21T15:01:53;13.4;62.8
79356;SHT31;68825;51.978;5.654;2024-02-21T15:04:21;13.4;63.2
79356;SHT31;68825;51.978;5.654;2024-02-21T15:06:50;13.4;63.5
79356;SHT31;68825;51.978;5.654;2024-02-21T15:09:18;13.4;63.4
79356;SHT31;68825;51.978;5.654;2024-02-21T15:11:47;13.3;64.3
79356;SHT31;68825;51.978;5.654;2024-02-21T15:14:15;13.3;64.3
79356;SHT31;68825;51.978;5.654;2024-02-21T15:16:44;13.3;64.7
79356;SHT31;68825;51.978;5.654;2024-02-21T15:19:12;13.3;65.5
79356;SHT31;68825;51.978;5.654;2024-02-21T15:21:41;13.2;65.1
79356;SHT31;68825;51.978;5.654;2024-02-21T15:24:11;13.2;65.8
79356;SHT31;68825;51.978;5.654;2024-02-21T15:26:39;13.2;66.2
79356;SHT31;68825;51.978;5.654;2024-02-21T15:29:08;13.1;66.6
79356;SHT31;68825;51.978;5.654;2024-02-21T15:31:37;13.1;66.6
79356;SHT31;68825;51.978;5.654;2024-02-21T15:34:10;13.1;66.8
79356;SHT31;68825;51.978;5.654;2024-02-21T15:36:38;13.0;67.2
79356;SHT31;68825;51.978;5.654;2024-02-21T15:39:07;13.0;67.5
79356;SHT31;68825;51.978;5.654;2024-02-21T15:41:37;13.0;68.2
79356;SHT31;68825;51.978;5.654;2024-02-21T15:44:05;12.9;68.4
79356;SHT31;68825;51.978;5.654;2024-02-21T15:46:34;12.9;68.7
79356;SHT31;68825;51.978;5.654;2024-02-21T15:49:04;12.9;68.7
79356;SHT31;68825;51.978;5.654;2024-02-21T15:51:34;12.8;68.6
79356;SHT31;68825;51.978;5.654;2024-02-21T15:54:08;12.8;68.7
79356;SHT31;68825;51.978;5.654;2024-02-21T15:56:37;12.8;69.2
79356;SHT31;68825;51.978;5.654;2024-02-21T15:59:07;12.7;69.6
79356;SHT31;68825;51.978;5.654;2024-02-21T16:01:37;12.7;69.4
79356;SHT31;68825;51.978;5.654;2024-02-21T16:04:07;12.7;69.8
79356;SHT31;68825;51.978;5.654;2024-02-21T16:06:37;12.7;69.5
79356;SHT31;68825;51.978;5.654;2024-02-21T16:09:06;12.6;69.5
79356;SHT31;68825;51.978;5.654;2024-02-21T16:11:35;12.6;70.0
79356;SHT31;68825;51.978;5.654;2024-02-21T16:14:04;12.6;70.0
79356;SHT31;68825;51.978;5.654;2024-02-21T16:16:32;12.5;70.1